createdAt,value
2022-11-16T00:01:19.477Z,13.02
2022-11-16T00:04:04.594Z,8.45
2022-11-16T00:06:49.835Z,12.68
2022-11-16T00:09:35.041Z,12.98
2022-11-16T00:12:20.280Z,17.65
2022-11-16T00:15:06.963Z,11.77
2022-11-16T00:17:52.075Z,7.38
2022-11-16T00:20:38.871Z,12.75
2022-11-16T00:23:24.453Z,18.88
2022-11-16T00:26:12.816Z,9.27
2022-11-16T00:28:58.550Z,9.30
2022-11-16T00:31:44.651Z,7.15
2022-11-16T00:34:29.812Z,14.15
2022-11-16T00:37:14.836Z,11.95
2022-11-16T00:39:59.693Z,9.32
2022-11-16T00:42:44.908Z,4.35
2022-11-16T00:45:29.866Z,8.35
2022-11-16T00:48:15.208Z,4.97
2022-11-16T00:51:00.284Z,7.57
2022-11-16T00:53:45.132Z,6.88
2022-11-16T00:56:30.234Z,4.47
2022-11-16T00:59:15.328Z,10.60
2022-11-16T01:02:00.390Z,9.38
2022-11-16T01:04:45.234Z,11.07
2022-11-16T01:07:30.307Z,3.15
2022-11-16T01:10:19.389Z,3.53
2022-11-16T01:13:04.549Z,6.60
2022-11-16T01:15:49.456Z,7.30
2022-11-16T01:18:34.560Z,7.22
2022-11-16T01:21:21.226Z,6.10
2022-11-16T01:24:06.665Z,15.43
2022-11-16T01:26:52.292Z,10.52
2022-11-16T01:29:37.560Z,9.43
2022-11-16T01:32:23.164Z,10.07
2022-11-16T01:35:09.801Z,5.22
2022-11-16T01:37:55.290Z,7.05
2022-11-16T01:40:40.704Z,4.78
2022-11-16T01:43:27.119Z,15.30
2022-11-16T01:46:11.996Z,6.03
2022-11-16T01:49:05.813Z,4.80
2022-11-16T01:52:01.741Z,13.15
2022-11-16T01:54:49.794Z,6.68
2022-11-16T01:57:39.831Z,9.73
2022-11-16T02:00:25.058Z,5.95
2022-11-16T02:03:10.466Z,4.53
2022-11-16T02:06:15.365Z,3.22
2022-11-16T02:09:30.097Z,5.40
2022-11-16T02:12:44.945Z,2.70
2022-11-16T02:15:34.961Z,2.70
2022-11-16T02:21:26.755Z,5.10
2022-11-16T02:24:31.333Z,5.72
2022-11-16T02:27:35.303Z,5.50
2022-11-16T02:30:21.685Z,5.35
2022-11-16T02:33:13.312Z,6.00
2022-11-16T02:36:02.280Z,7.60
2022-11-16T02:38:55.943Z,5.70
2022-11-16T02:41:44.256Z,5.07
2022-11-16T02:44:40.514Z,7.68
2022-11-16T02:47:30.433Z,7.65
2022-11-16T02:50:18.812Z,5.32
2022-11-16T02:53:04.158Z,5.03
2022-11-16T02:55:49.874Z,7.82
2022-11-16T02:58:35.175Z,8.05
2022-11-16T03:01:32.565Z,5.18
2022-11-16T03:04:28.229Z,5.38
2022-11-16T03:07:17.295Z,6.72
2022-11-16T03:10:03.390Z,11.02
2022-11-16T03:12:48.939Z,8.27
2022-11-16T03:15:37.521Z,12.10
2022-11-16T03:18:26.541Z,9.02
2022-11-16T03:21:19.371Z,5.55
2022-11-16T03:24:05.760Z,5.32
2022-11-16T03:26:59.760Z,8.23
2022-11-16T03:29:47.656Z,8.05
2022-11-16T03:32:40.707Z,4.53
2022-11-16T03:35:52.234Z,8.82
2022-11-16T03:38:40.168Z,6.75
2022-11-16T03:41:28.026Z,6.55
2022-11-16T03:44:16.256Z,5.90
2022-11-16T03:47:01.709Z,3.63
2022-11-16T03:49:47.946Z,11.25
2022-11-16T03:52:33.716Z,12.13
2022-11-16T03:55:18.897Z,7.75
2022-11-16T03:58:04.894Z,8.23
2022-11-16T04:00:50.184Z,7.50
2022-11-16T04:03:35.417Z,6.68
2022-11-16T04:06:39.737Z,7.07
2022-11-16T04:09:43.701Z,10.00
2022-11-16T04:12:47.437Z,13.00
2022-11-16T04:15:51.364Z,6.00
2022-11-16T04:18:55.118Z,8.52
2022-11-16T04:22:05.257Z,4.95
2022-11-16T04:24:56.801Z,5.97
2022-11-16T04:28:00.554Z,8.27
2022-11-16T04:31:07.783Z,9.30
2022-11-16T04:34:12.228Z,5.28
2022-11-16T04:37:16.222Z,29.58
2022-11-16T04:40:01.870Z,6.55
2022-11-16T04:42:54.146Z,10.93
2022-11-16T04:45:58.144Z,8.52
2022-11-16T04:48:43.325Z,3.97
2022-11-16T04:51:28.329Z,7.80
2022-11-16T04:54:13.312Z,5.05
2022-11-16T04:56:58.441Z,10.20
2022-11-16T04:59:43.371Z,5.72
2022-11-16T05:02:28.201Z,7.28
2022-11-16T05:05:13.833Z,5.60
2022-11-16T05:07:58.640Z,9.32
2022-11-16T05:10:43.475Z,6.93
2022-11-16T05:13:28.769Z,5.80
2022-11-16T05:16:14.004Z,4.25
2022-11-16T05:19:17.629Z,2.00
2022-11-16T05:22:02.815Z,9.85
2022-11-16T05:24:48.069Z,6.97
2022-11-16T05:27:33.909Z,3.42
2022-11-16T05:30:18.971Z,3.10
2022-11-16T05:33:04.133Z,3.53
2022-11-16T05:35:51.201Z,4.65
2022-11-16T05:38:36.754Z,4.13
2022-11-16T05:41:22.332Z,4.22
2022-11-16T05:44:07.193Z,5.90
2022-11-16T05:46:52.677Z,4.47
2022-11-16T05:49:37.911Z,2.53
2022-11-16T05:52:22.894Z,3.97
2022-11-16T05:55:08.456Z,8.50
2022-11-16T05:57:53.637Z,7.13
2022-11-16T06:00:38.741Z,3.85
2022-11-16T06:03:23.923Z,6.50
2022-11-16T06:06:09.426Z,5.38
2022-11-16T06:08:54.951Z,3.85
2022-11-16T06:11:40.239Z,7.25
2022-11-16T06:14:25.582Z,6.80
2022-11-16T06:17:14.377Z,3.53
2022-11-16T06:19:59.703Z,4.43
2022-11-16T06:22:45.093Z,3.45
2022-11-16T06:25:30.857Z,6.78
2022-11-16T06:28:16.114Z,7.85
2022-11-16T06:31:01.618Z,8.18
2022-11-16T06:33:46.602Z,7.07
2022-11-16T06:36:31.681Z,7.45
2022-11-16T06:39:17.061Z,7.47
2022-11-16T06:42:02.328Z,8.23
2022-11-16T06:44:47.397Z,4.38
2022-11-16T06:47:32.680Z,8.63
2022-11-16T06:50:21.057Z,6.40
2022-11-16T06:53:06.121Z,5.97
2022-11-16T06:55:51.056Z,8.25
2022-11-16T06:58:36.413Z,6.18
2022-11-16T07:01:21.815Z,6.25
2022-11-16T07:04:11.800Z,6.15
2022-11-16T07:06:56.831Z,6.57
2022-11-16T07:09:44.473Z,7.70
2022-11-16T07:12:29.614Z,8.40
2022-11-16T07:15:14.655Z,6.82
2022-11-16T07:18:04.752Z,6.22
2022-11-16T07:23:35.385Z,9.95
2022-11-16T07:26:21.256Z,12.13
2022-11-16T07:29:06.232Z,3.85
2022-11-16T07:31:51.509Z,8.20
2022-11-16T07:34:36.762Z,5.97
2022-11-16T07:37:21.614Z,7.72
2022-11-16T07:40:07.550Z,7.75
2022-11-16T07:42:52.377Z,7.45
2022-11-16T07:45:37.641Z,6.70
2022-11-16T07:48:22.528Z,10.35
2022-11-16T07:51:09.683Z,8.73
2022-11-16T07:53:55.893Z,7.78
2022-11-16T07:56:41.385Z,9.57
2022-11-16T07:59:27.407Z,8.63
2022-11-16T08:02:12.334Z,10.23
2022-11-16T08:04:57.497Z,13.75
2022-11-16T08:07:42.746Z,10.10
2022-11-16T08:10:27.766Z,9.98
2022-11-16T08:13:13.165Z,9.82
2022-11-16T08:16:12.939Z,10.77
2022-11-16T08:18:57.959Z,9.45
2022-11-16T08:21:42.833Z,8.15
2022-11-16T08:24:28.097Z,11.65
2022-11-16T08:27:15.352Z,6.80
2022-11-16T08:30:03.025Z,8.30
2022-11-16T08:32:47.975Z,7.80
2022-11-16T08:35:34.057Z,6.60
2022-11-16T08:38:19.206Z,10.23
2022-11-16T08:41:04.925Z,9.02
2022-11-16T08:43:50.765Z,12.02
2022-11-16T08:46:36.015Z,9.32
2022-11-16T08:49:21.287Z,13.05
2022-11-16T08:52:06.868Z,17.90
2022-11-16T08:54:51.902Z,11.75
2022-11-16T08:57:37.057Z,14.40
2022-11-16T09:00:22.118Z,14.55
2022-11-16T09:03:07.334Z,15.82
2022-11-16T09:05:52.453Z,11.30
2022-11-16T09:08:39.328Z,8.95
2022-11-16T09:11:25.679Z,8.48
2022-11-16T09:14:11.055Z,7.32
2022-11-16T09:16:56.149Z,6.43
2022-11-16T09:19:41.298Z,3.83
2022-11-16T09:22:26.302Z,5.45
2022-11-16T09:25:11.599Z,6.47
2022-11-16T09:27:56.886Z,10.30
2022-11-16T09:30:47.233Z,7.30
2022-11-16T09:33:34.127Z,8.18
2022-11-16T09:36:20.555Z,7.10
2022-11-16T09:42:41.175Z,4.05
2022-11-16T09:45:41.644Z,5.85
2022-11-16T09:48:27.445Z,4.40
2022-11-16T09:51:15.928Z,5.25
2022-11-16T09:54:06.057Z,4.65
2022-11-16T09:56:57.276Z,5.97
2022-11-16T09:59:47.656Z,7.47
2022-11-16T10:02:41.848Z,8.88
2022-11-16T10:05:39.028Z,6.13
2022-11-16T10:08:51.334Z,5.78
2022-11-16T10:11:39.502Z,9.48
2022-11-16T10:14:39.653Z,9.10
2022-11-16T10:17:46.437Z,7.55
2022-11-16T10:20:54.838Z,9.35
2022-11-16T10:23:49.834Z,9.60
2022-11-16T10:27:03.849Z,6.70
2022-11-16T10:30:31.105Z,8.98
2022-11-16T10:33:21.970Z,11.18
2022-11-16T10:36:13.995Z,8.07
2022-11-16T10:39:00.884Z,8.40
2022-11-16T10:41:53.102Z,4.18
2022-11-16T10:44:47.864Z,7.90
2022-11-16T10:47:42.525Z,5.90
2022-11-16T10:50:33.433Z,7.90
2022-11-16T10:53:38.906Z,8.35
2022-11-16T10:56:41.402Z,6.78
2022-11-16T10:59:39.762Z,11.23
2022-11-16T11:02:24.553Z,10.02
2022-11-16T11:05:20.333Z,12.23
2022-11-16T11:08:11.977Z,8.40
2022-11-16T11:11:24.783Z,7.15
2022-11-16T11:14:14.315Z,10.02
2022-11-16T11:17:11.481Z,4.40
2022-11-16T11:19:59.818Z,11.88
2022-11-16T11:23:10.837Z,6.60
2022-11-16T11:25:58.555Z,5.65
2022-11-16T11:28:49.321Z,3.83
2022-11-16T11:31:42.768Z,7.30
2022-11-16T11:34:31.905Z,4.63
2022-11-16T11:37:20.936Z,7.82
2022-11-16T11:40:20.177Z,4.30
2022-11-16T11:43:06.169Z,4.35
2022-11-16T11:46:02.893Z,10.75
2022-11-16T11:49:16.273Z,7.75
2022-11-16T11:52:34.013Z,9.40
2022-11-16T11:55:19.249Z,8.75
2022-11-16T11:58:11.069Z,11.02
2022-11-16T12:01:41.389Z,6.95
2022-11-16T12:04:35.369Z,11.35
2022-11-16T12:07:54.510Z,10.57
2022-11-16T12:10:46.144Z,8.10
2022-11-16T12:13:34.539Z,16.88
2022-11-16T12:16:39.193Z,9.45
2022-11-16T12:19:39.672Z,7.32
2022-11-16T12:23:03.787Z,9.95
2022-11-16T12:25:49.287Z,15.23
2022-11-16T12:28:55.632Z,14.85
2022-11-16T12:32:00.945Z,10.85
2022-11-16T12:35:00.895Z,12.82
2022-11-16T12:37:55.683Z,14.48
2022-11-16T12:40:52.805Z,17.80
2022-11-16T12:44:00.872Z,9.50
2022-11-16T12:47:13.992Z,8.05
2022-11-16T12:50:17.180Z,13.02
2022-11-16T12:53:14.205Z,9.57
2022-11-16T12:56:05.284Z,11.88
2022-11-16T12:58:59.349Z,9.55
2022-11-16T13:02:03.144Z,4.90
2022-11-16T13:04:55.069Z,6.63
2022-11-16T13:07:48.217Z,8.32
2022-11-16T13:10:42.848Z,9.38
2022-11-16T13:13:38.356Z,13.90
2022-11-16T13:16:24.518Z,6.10
2022-11-16T13:19:13.392Z,9.20
2022-11-16T13:22:21.855Z,10.10
2022-11-16T13:25:19.160Z,9.98
2022-11-16T13:28:10.280Z,13.63
2022-11-16T13:31:32.759Z,9.20
2022-11-16T13:34:27.374Z,15.93
2022-11-16T13:37:34.281Z,12.40
2022-11-16T13:40:28.708Z,13.93
2022-11-16T13:43:13.629Z,8.77
2022-11-16T13:46:00.742Z,7.45
2022-11-16T13:48:46.753Z,8.10
2022-11-16T13:51:32.091Z,7.13
2022-11-16T13:54:49.198Z,16.90
2022-11-16T13:57:34.747Z,11.82
2022-11-16T14:00:23.303Z,12.88
2022-11-16T14:03:17.623Z,9.40
2022-11-16T14:06:02.818Z,8.90
2022-11-16T14:08:58.502Z,7.00
2022-11-16T14:11:43.572Z,10.43
2022-11-16T14:15:04.024Z,10.57
2022-11-16T14:17:57.079Z,11.57
2022-11-16T14:21:09.998Z,9.32
2022-11-16T14:24:13.341Z,8.95
2022-11-16T14:27:16.185Z,10.23
2022-11-16T14:30:19.131Z,10.20
2022-11-16T14:33:04.303Z,10.73
2022-11-16T14:35:52.735Z,6.78
2022-11-16T14:38:44.844Z,14.13
2022-11-16T14:41:30.198Z,16.33
2022-11-16T14:44:21.735Z,12.35
2022-11-16T14:47:20.497Z,11.73
2022-11-16T14:50:18.638Z,12.07
2022-11-16T14:53:07.246Z,10.90
2022-11-16T14:55:52.289Z,13.10
2022-11-16T14:58:38.339Z,12.68
2022-11-16T15:01:27.756Z,14.00
2022-11-16T15:04:17.544Z,13.82
2022-11-16T15:07:05.240Z,9.70
2022-11-16T15:09:53.968Z,15.48
2022-11-16T15:12:42.961Z,10.02
2022-11-16T15:15:30.231Z,15.10
2022-11-16T15:18:20.643Z,14.02
2022-11-16T15:21:06.279Z,11.68
2022-11-16T15:24:08.570Z,16.05
2022-11-16T15:27:12.078Z,24.10
2022-11-16T15:30:00.994Z,23.23
2022-11-16T15:32:48.794Z,17.30
2022-11-16T15:35:36.607Z,28.83
2022-11-16T15:38:24.737Z,27.20
2022-11-16T15:41:10.396Z,22.40
2022-11-16T15:44:15.303Z,30.70
2022-11-16T15:47:02.981Z,32.43
2022-11-16T15:49:53.039Z,35.40
2022-11-16T15:52:50.353Z,28.33
2022-11-16T15:55:40.499Z,24.85
2022-11-16T16:01:15.368Z,20.13
2022-11-16T16:04:08.016Z,30.45
2022-11-16T16:06:54.945Z,35.22
2022-11-16T16:09:40.935Z,30.58
2022-11-16T16:12:26.790Z,21.75
2022-11-16T16:15:40.129Z,27.17
2022-11-16T16:18:40.462Z,31.73
2022-11-16T16:21:35.351Z,25.75
2022-11-16T16:24:37.449Z,30.80
2022-11-16T16:27:24.841Z,25.15
2022-11-16T16:30:14.492Z,34.78
2022-11-16T16:33:00.394Z,27.15
2022-11-16T16:35:49.561Z,27.10
2022-11-16T16:38:34.454Z,19.48
2022-11-16T16:41:24.218Z,26.83
2022-11-16T16:44:15.942Z,29.48
2022-11-16T16:47:01.268Z,25.42
2022-11-16T16:49:47.138Z,30.95
2022-11-16T16:52:32.035Z,32.83
2022-11-16T16:55:17.298Z,35.25
2022-11-16T16:58:02.883Z,26.25
2022-11-16T17:00:48.101Z,33.17
2022-11-16T17:03:33.734Z,28.90
2022-11-16T17:06:19.011Z,37.15
2022-11-16T17:09:04.623Z,21.98
2022-11-16T17:11:49.734Z,20.92
2022-11-16T17:14:34.792Z,21.15
2022-11-16T17:17:21.185Z,26.20
2022-11-16T17:20:06.596Z,21.52
2022-11-16T17:22:51.863Z,24.48
2022-11-16T17:25:37.903Z,26.30
2022-11-16T17:28:23.019Z,23.08
2022-11-16T17:31:11.292Z,29.15
2022-11-16T17:33:59.509Z,32.83
2022-11-16T17:36:44.901Z,22.40
2022-11-16T17:39:29.992Z,21.95
2022-11-16T17:42:15.045Z,15.40
2022-11-16T17:45:00.289Z,22.10
2022-11-16T17:47:45.539Z,16.33
2022-11-16T17:50:30.564Z,13.70
2022-11-16T17:53:15.693Z,18.92
2022-11-16T17:56:01.223Z,13.77
2022-11-16T17:58:46.714Z,12.27
2022-11-16T18:01:32.177Z,10.93
2022-11-16T18:04:17.711Z,20.35
2022-11-16T18:07:02.756Z,11.85
2022-11-16T18:09:47.983Z,15.57
2022-11-16T18:12:33.037Z,20.35
2022-11-16T18:15:39.259Z,23.67
2022-11-16T18:18:23.107Z,13.32
2022-11-16T18:21:09.781Z,14.65
2022-11-16T18:23:55.585Z,19.45
2022-11-16T18:26:41.517Z,17.55
2022-11-16T18:29:26.546Z,19.52
2022-11-16T18:32:11.705Z,14.02
2022-11-16T18:34:56.583Z,20.75
2022-11-16T18:37:42.056Z,13.27
2022-11-16T18:40:27.003Z,19.38
2022-11-16T18:43:13.158Z,20.08
2022-11-16T18:45:58.365Z,16.33
2022-11-16T18:48:43.413Z,18.00
2022-11-16T18:51:29.204Z,18.52
2022-11-16T18:54:14.194Z,17.85
2022-11-16T18:56:59.475Z,13.70
2022-11-16T18:59:44.481Z,17.67
2022-11-16T19:02:29.734Z,16.55
2022-11-16T19:05:14.974Z,16.88
2022-11-16T19:08:00.125Z,14.18
2022-11-16T19:10:45.127Z,19.83
2022-11-16T19:13:30.013Z,14.18
2022-11-16T19:16:15.269Z,16.20
2022-11-16T19:19:01.665Z,17.63
2022-11-16T19:21:46.695Z,16.48
2022-11-16T19:24:31.908Z,12.77
2022-11-16T19:27:17.010Z,15.80
2022-11-16T19:30:02.028Z,11.90
2022-11-16T19:32:47.400Z,15.98
2022-11-16T19:35:32.742Z,13.70
2022-11-16T19:38:18.004Z,18.50
2022-11-16T19:41:03.312Z,17.02
2022-11-16T19:43:51.263Z,15.93
2022-11-16T19:46:36.508Z,13.35
2022-11-16T19:49:21.797Z,11.38
2022-11-16T19:52:06.888Z,7.95
2022-11-16T19:54:51.844Z,9.93
2022-11-16T19:57:36.899Z,7.35
2022-11-16T20:00:22.258Z,13.13
2022-11-16T20:03:07.545Z,9.90
2022-11-16T20:05:52.464Z,11.77
2022-11-16T20:08:39.425Z,11.45
2022-11-16T20:11:29.446Z,4.75
2022-11-16T20:14:14.966Z,7.53
2022-11-16T20:16:59.892Z,12.13
2022-11-16T20:19:44.829Z,7.38
2022-11-16T20:22:29.620Z,7.47
2022-11-16T20:25:15.894Z,6.28
2022-11-16T20:28:01.189Z,6.95
2022-11-16T20:30:47.558Z,6.95
2022-11-16T20:33:34.441Z,5.72
2022-11-16T20:36:20.224Z,8.30
2022-11-16T20:39:05.305Z,8.52
2022-11-16T20:41:50.736Z,5.25
2022-11-16T20:44:35.712Z,4.57
2022-11-16T20:47:20.639Z,8.55
2022-11-16T20:50:05.861Z,8.77
2022-11-16T20:52:52.823Z,9.02
2022-11-16T20:55:38.333Z,7.20
2022-11-16T20:58:24.197Z,7.60
2022-11-16T21:01:13.192Z,7.43
2022-11-16T21:04:01.040Z,12.30
2022-11-16T21:06:46.204Z,9.68
2022-11-16T21:09:51.058Z,13.35
2022-11-16T21:12:54.956Z,16.02
2022-11-16T21:15:40.238Z,13.73
2022-11-16T21:18:30.497Z,20.05
2022-11-16T21:21:16.207Z,221.25
2022-11-16T21:24:01.593Z,194.55
2022-11-16T21:26:46.808Z,34.92
2022-11-16T21:29:31.765Z,63.33
2022-11-16T21:32:16.919Z,25.27
2022-11-16T21:35:02.047Z,15.23
2022-11-16T21:37:47.041Z,20.77
2022-11-16T21:40:32.026Z,17.95
2022-11-16T21:43:17.459Z,19.42
2022-11-16T21:46:07.735Z,26.67
2022-11-16T21:48:55.371Z,19.40
2022-11-16T21:51:40.413Z,15.73
2022-11-16T21:54:45.397Z,24.48
2022-11-16T21:57:30.474Z,19.17
2022-11-16T22:00:16.192Z,27.13
2022-11-16T22:03:01.135Z,34.63
2022-11-16T22:06:08.841Z,34.63
2022-11-16T22:08:56.971Z,40.75
2022-11-16T22:11:42.361Z,37.15
2022-11-16T22:14:27.445Z,38.95
2022-11-16T22:17:12.587Z,46.53
2022-11-16T22:19:57.554Z,45.72
2022-11-16T22:22:42.798Z,63.55
2022-11-16T22:25:28.346Z,55.25
2022-11-16T22:28:20.794Z,54.78
2022-11-16T22:31:09.481Z,52.55
2022-11-16T22:33:54.674Z,51.08
2022-11-16T22:36:39.798Z,45.92
2022-11-16T22:39:24.801Z,64.03
2022-11-16T22:42:11.371Z,55.55
2022-11-16T22:44:56.253Z,50.85
2022-11-16T22:47:41.474Z,58.10
2022-11-16T22:50:26.790Z,48.80
2022-11-16T22:53:12.048Z,57.08
2022-11-16T22:56:03.899Z,56.25
2022-11-16T22:58:49.116Z,49.47
2022-11-16T23:01:34.428Z,52.33
2022-11-16T23:04:19.626Z,39.97
2022-11-16T23:07:04.553Z,41.38
2022-11-16T23:09:49.458Z,45.85
2022-11-16T23:12:53.015Z,36.65
2022-11-16T23:15:50.222Z,43.42
2022-11-16T23:18:35.324Z,40.25
2022-11-16T23:21:40.639Z,44.25
2022-11-16T23:24:44.649Z,39.08
2022-11-16T23:27:36.971Z,31.27
2022-11-16T23:30:22.963Z,29.98
2022-11-16T23:33:08.810Z,35.55
2022-11-16T23:35:53.853Z,37.88
2022-11-16T23:38:39.880Z,33.83
2022-11-16T23:41:43.657Z,23.33
2022-11-16T23:44:28.853Z,19.00
2022-11-16T23:47:14.045Z,15.13
2022-11-16T23:49:59.177Z,12.65
2022-11-16T23:52:44.208Z,13.98
2022-11-16T23:55:31.575Z,14.27
2022-11-16T23:58:16.850Z,12.75
